createdAt,value
2022-11-30T00:00:24.722Z,1.15
2022-11-30T00:02:58.467Z,0.60
2022-11-30T00:05:27.089Z,0.65
2022-11-30T00:07:58.067Z,0.60
2022-11-30T00:10:26.501Z,0.80
2022-11-30T00:12:55.788Z,1.05
2022-11-30T00:15:24.111Z,0.80
2022-11-30T00:17:58.033Z,0.90
2022-11-30T00:20:27.016Z,0.70
2022-11-30T00:23:03.071Z,0.80
2022-11-30T00:25:31.337Z,0.95
2022-11-30T00:28:04.911Z,1.10
2022-11-30T00:30:33.267Z,0.60
2022-11-30T00:33:01.711Z,0.90
2022-11-30T00:35:33.034Z,1.00
2022-11-30T00:38:04.230Z,0.75
2022-11-30T00:40:32.747Z,0.85
2022-11-30T00:43:02.756Z,1.00
2022-11-30T00:45:31.157Z,0.90
2022-11-30T00:47:59.447Z,0.80
2022-11-30T00:50:30.831Z,0.70
2022-11-30T00:52:59.183Z,1.00
2022-11-30T00:55:30.399Z,1.08
2022-11-30T00:58:02.073Z,1.00
2022-11-30T01:00:30.848Z,1.00
2022-11-30T01:03:03.317Z,1.17
2022-11-30T01:05:34.126Z,0.82
2022-11-30T01:08:10.007Z,0.65
2022-11-30T01:10:42.228Z,1.10
2022-11-30T01:13:11.625Z,0.93
2022-11-30T01:15:43.518Z,0.70
2022-11-30T01:18:16.753Z,0.90
2022-11-30T01:20:45.619Z,0.93
2022-11-30T01:23:16.910Z,0.90
2022-11-30T01:25:59.239Z,0.98
2022-11-30T01:28:27.628Z,0.80
2022-11-30T01:31:18.080Z,1.08
2022-11-30T01:33:51.450Z,1.20
2022-11-30T01:36:23.641Z,1.20
2022-11-30T01:38:57.753Z,1.17
2022-11-30T01:41:32.706Z,1.25
2022-11-30T01:44:10.351Z,1.20
2022-11-30T01:46:44.715Z,1.15
2022-11-30T01:49:35.311Z,1.50
2022-11-30T01:52:23.791Z,1.23
2022-11-30T01:55:09.591Z,1.30
2022-11-30T01:57:52.127Z,1.20
2022-11-30T02:00:23.960Z,1.02
2022-11-30T02:03:20.758Z,1.30
2022-11-30T02:06:00.486Z,1.13
2022-11-30T02:08:31.296Z,1.02
2022-11-30T02:11:07.090Z,1.10
2022-11-30T02:14:01.233Z,1.20
2022-11-30T02:17:13.500Z,1.30
2022-11-30T02:20:09.273Z,1.10
2022-11-30T02:22:46.541Z,1.40
2022-11-30T02:25:20.525Z,1.10
2022-11-30T02:28:04.186Z,1.30
2022-11-30T02:30:44.080Z,1.30
2022-11-30T02:33:19.943Z,1.65
2022-11-30T02:35:58.346Z,1.20
2022-11-30T02:38:37.351Z,1.50
2022-11-30T02:41:16.566Z,1.73
2022-11-30T02:43:48.484Z,1.52
2022-11-30T02:46:40.901Z,1.70
2022-11-30T02:49:57.060Z,1.40
2022-11-30T02:55:15.580Z,1.40
2022-11-30T02:57:44.115Z,1.48
2022-11-30T03:00:20.260Z,1.60
2022-11-30T03:02:48.787Z,1.60
2022-11-30T03:05:17.156Z,1.50
2022-11-30T03:07:53.548Z,1.30
2022-11-30T03:10:22.168Z,1.50
2022-11-30T03:12:50.606Z,1.60
2022-11-30T03:15:20.990Z,1.70
2022-11-30T03:17:52.234Z,1.60
2022-11-30T03:20:23.464Z,1.55
2022-11-30T03:22:54.346Z,1.60
2022-11-30T03:25:22.571Z,1.60
2022-11-30T03:27:53.497Z,1.67
2022-11-30T03:30:22.201Z,1.58
2022-11-30T03:32:56.201Z,1.60
2022-11-30T03:35:31.958Z,1.65
2022-11-30T03:38:06.030Z,1.80
2022-11-30T03:40:37.176Z,1.70
2022-11-30T03:43:16.363Z,1.58
2022-11-30T03:45:53.792Z,1.70
2022-11-30T03:48:26.586Z,1.60
2022-11-30T03:50:59.432Z,1.30
2022-11-30T03:53:27.731Z,1.67
2022-11-30T03:56:12.712Z,1.58
2022-11-30T04:01:40.684Z,1.60
2022-11-30T04:04:11.792Z,1.70
2022-11-30T04:06:45.597Z,1.70
2022-11-30T04:09:18.154Z,2.00
2022-11-30T04:12:02.958Z,1.77
2022-11-30T04:14:40.426Z,2.03
2022-11-30T04:17:08.751Z,2.03
2022-11-30T04:19:40.036Z,1.55
2022-11-30T04:22:08.434Z,1.80
2022-11-30T04:24:45.365Z,2.05
2022-11-30T04:27:18.843Z,2.00
2022-11-30T04:29:53.064Z,2.53
2022-11-30T04:32:21.387Z,2.00
2022-11-30T04:34:51.777Z,2.40
2022-11-30T04:37:22.399Z,2.20
2022-11-30T04:39:59.791Z,2.25
2022-11-30T04:42:33.530Z,2.20
2022-11-30T04:45:06.751Z,2.03
2022-11-30T04:47:42.641Z,2.20
2022-11-30T04:50:13.545Z,2.00
2022-11-30T04:52:53.674Z,2.60
2022-11-30T04:55:28.839Z,2.20
2022-11-30T04:58:23.565Z,2.20
2022-11-30T05:00:56.421Z,2.33
2022-11-30T05:03:27.602Z,2.20
2022-11-30T05:05:57.701Z,2.80
2022-11-30T05:08:34.497Z,2.60
2022-11-30T05:11:15.782Z,2.70
2022-11-30T05:13:49.030Z,2.30
2022-11-30T05:16:25.021Z,2.55
2022-11-30T05:18:57.830Z,2.42
2022-11-30T05:21:33.827Z,2.45
2022-11-30T05:24:18.166Z,2.42
2022-11-30T05:26:54.583Z,2.15
2022-11-30T05:29:25.403Z,2.20
2022-11-30T05:32:00.643Z,2.42
2022-11-30T05:34:41.311Z,2.47
2022-11-30T05:37:21.227Z,2.17
2022-11-30T05:39:49.506Z,2.25
2022-11-30T05:42:32.180Z,2.35
2022-11-30T05:45:05.576Z,2.30
2022-11-30T05:47:46.791Z,2.28
2022-11-30T05:50:16.880Z,2.50
2022-11-30T05:53:07.846Z,2.60
2022-11-30T05:55:39.267Z,2.90
2022-11-30T05:58:18.176Z,3.13
2022-11-30T06:03:37.543Z,3.33
2022-11-30T06:06:12.054Z,3.22
2022-11-30T06:11:35.633Z,3.17
2022-11-30T06:14:12.634Z,2.80
2022-11-30T06:17:10.446Z,3.30
2022-11-30T06:19:49.978Z,3.05
2022-11-30T06:22:24.511Z,3.17
2022-11-30T06:24:57.206Z,3.33
2022-11-30T06:30:26.731Z,3.20
2022-11-30T06:33:09.103Z,2.90
2022-11-30T06:35:46.837Z,3.47
2022-11-30T06:38:27.403Z,3.20
2022-11-30T06:41:17.173Z,3.40
2022-11-30T06:43:52.967Z,3.28
2022-11-30T06:46:30.990Z,3.30
2022-11-30T06:49:15.884Z,3.60
2022-11-30T06:51:55.839Z,3.80
2022-11-30T06:54:27.146Z,4.00
2022-11-30T06:57:04.161Z,3.78
2022-11-30T06:59:40.925Z,3.40
2022-11-30T07:02:19.210Z,3.50
2022-11-30T07:04:52.737Z,3.47
2022-11-30T07:07:26.451Z,3.70
2022-11-30T07:10:10.462Z,3.45
2022-11-30T07:12:48.116Z,2.97
2022-11-30T07:15:31.146Z,3.20
2022-11-30T07:18:02.774Z,3.60
2022-11-30T07:20:40.228Z,3.33
2022-11-30T07:23:32.693Z,3.15
2022-11-30T07:26:08.085Z,3.33
2022-11-30T07:28:49.221Z,3.13
2022-11-30T07:31:39.493Z,3.65
2022-11-30T07:34:14.281Z,2.97
2022-11-30T07:39:49.388Z,2.63
2022-11-30T07:42:32.082Z,2.63
2022-11-30T07:45:02.552Z,2.90
2022-11-30T07:47:37.618Z,3.05
2022-11-30T07:50:35.663Z,2.78
2022-11-30T07:53:16.621Z,2.83
2022-11-30T07:55:47.834Z,3.10
2022-11-30T07:58:26.198Z,2.50
2022-11-30T08:01:06.594Z,2.65
2022-11-30T08:03:40.388Z,2.72
2022-11-30T08:06:17.388Z,2.63
2022-11-30T08:08:46.697Z,2.63
2022-11-30T08:11:36.689Z,2.67
2022-11-30T08:14:13.514Z,2.38
2022-11-30T08:16:58.451Z,2.70
2022-11-30T08:19:41.648Z,2.50
2022-11-30T08:22:10.987Z,2.30
2022-11-30T08:24:52.265Z,2.45
2022-11-30T08:27:30.346Z,2.38
2022-11-30T08:30:06.204Z,2.47
2022-11-30T08:32:59.577Z,2.42
2022-11-30T08:35:43.262Z,2.40
2022-11-30T08:38:19.950Z,2.33
2022-11-30T08:40:53.937Z,2.38
2022-11-30T08:43:30.205Z,2.65
2022-11-30T08:46:27.388Z,2.35
2022-11-30T08:49:25.770Z,2.60
2022-11-30T08:52:20.098Z,1.90
2022-11-30T08:54:56.968Z,2.38
2022-11-30T08:57:32.911Z,2.75
2022-11-30T09:00:07.983Z,2.20
2022-11-30T09:03:04.385Z,2.08
2022-11-30T09:05:38.492Z,2.38
2022-11-30T09:08:18.620Z,2.08
2022-11-30T09:11:04.426Z,2.30
2022-11-30T09:13:44.387Z,2.38
2022-11-30T09:16:50.263Z,2.47
2022-11-30T09:19:23.398Z,2.30
2022-11-30T09:22:14.351Z,2.63
2022-11-30T09:24:48.529Z,2.63
2022-11-30T09:27:22.000Z,2.50
2022-11-30T09:30:15.477Z,2.45
2022-11-30T09:33:01.504Z,2.60
2022-11-30T09:35:34.586Z,2.42
2022-11-30T09:38:12.857Z,2.85
2022-11-30T09:40:50.746Z,2.20
2022-11-30T09:43:51.552Z,2.85
2022-11-30T09:46:36.470Z,2.42
2022-11-30T09:52:46.912Z,2.67
2022-11-30T09:55:42.253Z,2.33
2022-11-30T09:58:38.419Z,2.60
2022-11-30T10:01:19.004Z,2.58
2022-11-30T10:03:55.557Z,2.50
2022-11-30T10:07:23.184Z,2.17
2022-11-30T10:10:32.110Z,2.42
2022-11-30T10:18:11.956Z,2.10
2022-11-30T10:20:39.327Z,2.65
2022-11-30T10:23:44.537Z,2.30
2022-11-30T10:26:33.352Z,2.40
2022-11-30T10:29:47.563Z,2.00
2022-11-30T10:32:31.717Z,2.10
2022-11-30T10:35:30.081Z,2.10
2022-11-30T10:38:24.195Z,2.10
2022-11-30T10:44:41.626Z,2.00
2022-11-30T10:47:42.986Z,2.50
2022-11-30T10:50:29.161Z,2.33
2022-11-30T10:53:18.478Z,2.50
2022-11-30T10:56:36.403Z,2.28
2022-11-30T10:59:35.496Z,2.10
2022-11-30T11:02:49.869Z,2.30
2022-11-30T11:05:54.827Z,2.20
2022-11-30T11:08:54.312Z,2.30
2022-11-30T11:11:45.787Z,2.40
2022-11-30T11:14:31.369Z,2.38
2022-11-30T11:17:46.030Z,2.22
2022-11-30T11:21:12.133Z,2.40
2022-11-30T11:23:57.437Z,2.15
2022-11-30T11:26:43.945Z,2.05
2022-11-30T11:29:43.827Z,2.25
2022-11-30T11:35:53.400Z,2.50
2022-11-30T11:38:41.458Z,2.42
2022-11-30T11:41:37.551Z,2.33
2022-11-30T11:45:21.509Z,2.40
2022-11-30T11:48:28.647Z,2.10
2022-11-30T11:51:25.061Z,2.20
2022-11-30T11:54:26.546Z,2.30
2022-11-30T11:57:24.900Z,2.20
2022-11-30T12:00:20.516Z,2.60
2022-11-30T12:03:23.136Z,2.50
2022-11-30T12:09:59.895Z,2.22
2022-11-30T12:12:50.660Z,2.63
2022-11-30T12:19:32.618Z,2.30
2022-11-30T12:22:40.431Z,0.38
2022-11-30T12:25:51.202Z,2.25
2022-11-30T12:29:12.512Z,2.28
2022-11-30T12:35:58.816Z,2.15
2022-11-30T12:42:27.304Z,2.10
2022-11-30T12:48:45.268Z,0.73
2022-11-30T12:51:42.800Z,0.25
2022-11-30T12:54:25.501Z,2.20
2022-11-30T12:57:59.916Z,2.25
2022-11-30T13:01:02.262Z,2.17
2022-11-30T13:04:47.165Z,2.25
2022-11-30T13:08:13.917Z,2.42
2022-11-30T13:15:30.478Z,2.50
2022-11-30T13:17:36.840Z,2.60
2022-11-30T13:21:06.834Z,2.10
2022-11-30T13:24:32.995Z,2.30
2022-11-30T13:27:50.244Z,2.40
2022-11-30T13:31:35.960Z,2.20
2022-11-30T13:34:30.311Z,2.22
2022-11-30T13:37:38.817Z,2.72
2022-11-30T13:40:43.630Z,3.03
2022-11-30T13:44:12.926Z,2.90
2022-11-30T13:47:28.878Z,0.88
2022-11-30T13:50:37.955Z,2.72
2022-11-30T13:57:09.688Z,2.60
2022-11-30T14:09:56.531Z,2.10
2022-11-30T14:13:38.290Z,2.45
2022-11-30T14:19:31.441Z,2.58
2022-11-30T14:24:23.527Z,2.47
2022-11-30T14:29:31.752Z,2.55
2022-11-30T14:33:08.940Z,2.75
2022-11-30T14:36:01.352Z,2.33
2022-11-30T14:38:52.119Z,2.33
2022-11-30T14:42:08.407Z,2.20
2022-11-30T14:54:44.390Z,2.30
2022-11-30T14:58:32.185Z,2.35
2022-11-30T15:01:25.363Z,2.40
2022-11-30T15:04:44.145Z,0.40
2022-11-30T15:14:41.929Z,1.88
2022-11-30T15:20:35.598Z,1.90
2022-11-30T15:23:53.303Z,2.28
2022-11-30T15:26:47.480Z,2.35
2022-11-30T15:31:23.070Z,2.03
2022-11-30T15:35:22.328Z,2.20
2022-11-30T15:39:49.543Z,0.55
2022-11-30T15:46:01.458Z,2.17
2022-11-30T15:48:59.605Z,2.17
2022-11-30T15:52:57.586Z,1.00
2022-11-30T15:55:39.268Z,0.55
2022-11-30T16:02:26.726Z,2.65
2022-11-30T16:05:37.410Z,2.80
2022-11-30T16:08:29.776Z,2.88
2022-11-30T16:17:16.313Z,1.27
2022-11-30T16:20:29.239Z,3.17
2022-11-30T16:23:24.018Z,2.90
2022-11-30T16:25:58.974Z,0.20
2022-11-30T16:32:30.243Z,3.10
2022-11-30T16:35:33.749Z,3.17
2022-11-30T16:38:28.568Z,2.83
2022-11-30T16:41:44.789Z,3.00
2022-11-30T16:50:59.020Z,2.75
2022-11-30T16:53:53.803Z,2.80
2022-11-30T16:56:59.822Z,0.60
2022-11-30T16:59:49.253Z,2.75
2022-11-30T17:02:38.393Z,2.80
2022-11-30T17:05:44.765Z,2.70
2022-11-30T17:08:54.453Z,2.63
2022-11-30T17:12:12.665Z,2.70
2022-11-30T17:15:01.684Z,2.50
2022-11-30T17:17:59.278Z,2.30
2022-11-30T17:21:10.885Z,2.50
2022-11-30T17:23:34.277Z,2.50
2022-11-30T17:26:20.085Z,2.67
2022-11-30T17:29:36.472Z,2.60
2022-11-30T17:32:07.905Z,2.40
2022-11-30T17:34:47.473Z,2.17
2022-11-30T17:37:38.641Z,2.45
2022-11-30T17:40:20.985Z,2.50
2022-11-30T17:42:55.930Z,2.40
2022-11-30T17:45:40.264Z,2.30
2022-11-30T17:48:52.300Z,2.40
2022-11-30T17:51:30.192Z,2.28
2022-11-30T17:54:09.128Z,2.50
2022-11-30T17:57:14.521Z,2.78
2022-11-30T17:59:49.690Z,2.65
2022-11-30T18:05:27.005Z,2.30
2022-11-30T18:08:17.629Z,2.40
2022-11-30T18:10:51.091Z,2.30
2022-11-30T18:13:35.065Z,2.60
2022-11-30T18:16:27.567Z,2.60
2022-11-30T18:18:59.415Z,2.45
2022-11-30T18:21:35.849Z,2.78
2022-11-30T18:24:13.727Z,2.67
2022-11-30T18:26:47.216Z,2.67
2022-11-30T18:29:18.559Z,2.75
2022-11-30T18:32:05.790Z,2.50
2022-11-30T18:34:44.506Z,2.65
2022-11-30T18:37:20.844Z,2.30
2022-11-30T18:40:04.802Z,2.80
2022-11-30T18:45:26.026Z,2.95
2022-11-30T18:48:18.909Z,3.00
2022-11-30T18:51:01.337Z,2.90
2022-11-30T18:53:32.831Z,3.05
2022-11-30T18:56:15.307Z,2.88
2022-11-30T18:58:54.826Z,3.08
2022-11-30T19:01:32.257Z,2.97
2022-11-30T19:04:12.319Z,3.13
2022-11-30T19:06:47.710Z,2.97
2022-11-30T19:09:26.125Z,2.78
2022-11-30T19:12:12.367Z,2.90
2022-11-30T19:14:46.890Z,3.20
2022-11-30T19:19:58.029Z,2.88
2022-11-30T19:22:33.901Z,2.90
2022-11-30T19:25:05.233Z,2.70
2022-11-30T19:27:41.506Z,2.90
2022-11-30T19:30:13.391Z,2.50
2022-11-30T19:32:43.659Z,2.47
2022-11-30T19:35:11.961Z,2.90
2022-11-30T19:37:45.334Z,2.65
2022-11-30T19:40:22.935Z,2.50
2022-11-30T19:42:58.443Z,2.35
2022-11-30T19:45:26.823Z,2.03
2022-11-30T19:47:55.150Z,2.20
2022-11-30T19:50:32.073Z,1.60
2022-11-30T19:53:01.223Z,1.90
2022-11-30T19:55:32.544Z,1.75
2022-11-30T19:58:07.455Z,2.17
2022-11-30T20:00:39.475Z,2.08
2022-11-30T20:03:12.749Z,1.70
2022-11-30T20:06:04.246Z,1.80
2022-11-30T20:08:41.069Z,1.77
2022-11-30T20:11:13.240Z,1.90
2022-11-30T20:13:44.037Z,1.77
2022-11-30T20:16:21.998Z,1.70
2022-11-30T20:19:04.365Z,1.70
2022-11-30T20:21:37.306Z,1.92
2022-11-30T20:24:17.019Z,1.80
2022-11-30T20:26:51.307Z,1.80
2022-11-30T20:29:20.847Z,1.63
2022-11-30T20:32:09.388Z,1.70
2022-11-30T20:34:44.646Z,1.67
2022-11-30T20:37:13.607Z,1.60
2022-11-30T20:39:54.580Z,1.60
2022-11-30T20:42:25.891Z,1.67
2022-11-30T20:44:54.244Z,2.30
2022-11-30T20:47:29.893Z,1.70
2022-11-30T20:50:05.019Z,1.77
2022-11-30T20:52:33.383Z,1.63
2022-11-30T20:55:03.535Z,1.77
2022-11-30T20:57:34.820Z,1.70
2022-11-30T21:00:13.087Z,2.00
2022-11-30T21:02:41.844Z,1.95
2022-11-30T21:05:10.584Z,1.70
2022-11-30T21:07:57.178Z,1.70
2022-11-30T21:10:30.379Z,1.75
2022-11-30T21:12:58.838Z,2.00
2022-11-30T21:15:32.027Z,1.70
2022-11-30T21:18:03.444Z,1.92
2022-11-30T21:20:36.428Z,2.10
2022-11-30T21:23:07.623Z,1.92
2022-11-30T21:25:42.015Z,1.90
2022-11-30T21:28:20.375Z,1.60
2022-11-30T21:31:07.998Z,1.80
2022-11-30T21:33:36.390Z,1.92
2022-11-30T21:36:12.569Z,1.85
2022-11-30T21:38:44.944Z,2.13
2022-11-30T21:41:16.845Z,2.22
2022-11-30T21:43:47.791Z,2.13
2022-11-30T21:46:19.208Z,1.95
2022-11-30T21:49:05.257Z,1.90
2022-11-30T21:51:38.443Z,2.03
2022-11-30T21:54:23.235Z,2.17
2022-11-30T21:56:54.670Z,2.15
2022-11-30T21:59:25.222Z,1.98
2022-11-30T22:01:53.520Z,2.15
2022-11-30T22:04:27.820Z,2.00
2022-11-30T22:06:58.495Z,2.85
2022-11-30T22:09:26.824Z,1.98
2022-11-30T22:11:58.665Z,2.10
2022-11-30T22:14:35.786Z,2.08
2022-11-30T22:17:04.197Z,1.90
2022-11-30T22:19:32.579Z,2.08
2022-11-30T22:22:03.954Z,1.55
2022-11-30T22:24:34.827Z,1.50
2022-11-30T22:27:03.148Z,1.58
2022-11-30T22:29:37.070Z,1.63
2022-11-30T22:32:06.178Z,1.60
2022-11-30T22:34:34.831Z,2.00
2022-11-30T22:37:05.627Z,1.70
2022-11-30T22:39:33.978Z,1.65
2022-11-30T22:42:07.464Z,1.60
2022-11-30T22:44:38.019Z,1.70
2022-11-30T22:47:08.894Z,1.33
2022-11-30T22:49:40.502Z,1.38
2022-11-30T22:52:11.084Z,1.40
2022-11-30T22:54:39.502Z,1.40
2022-11-30T22:57:16.795Z,1.23
2022-11-30T22:59:45.410Z,1.55
2022-11-30T23:02:24.350Z,1.48
2022-11-30T23:04:52.744Z,1.50
2022-11-30T23:07:21.093Z,1.65
2022-11-30T23:09:51.375Z,1.58
2022-11-30T23:12:57.515Z,1.20
2022-11-30T23:15:17.310Z,1.20
2022-11-30T23:17:45.679Z,1.05
2022-11-30T23:20:16.936Z,1.30
2022-11-30T23:22:54.290Z,0.77
2022-11-30T23:25:23.186Z,0.95
2022-11-30T23:27:51.484Z,0.90
2022-11-30T23:30:24.499Z,1.20
2022-11-30T23:32:58.843Z,1.38
2022-11-30T23:35:34.186Z,1.20
2022-11-30T23:38:11.740Z,1.38
2022-11-30T23:40:43.144Z,1.20
2022-11-30T23:43:11.479Z,1.10
2022-11-30T23:45:45.585Z,1.25
2022-11-30T23:48:17.081Z,1.35
2022-11-30T23:50:46.309Z,1.30
2022-11-30T23:53:26.210Z,1.20
2022-11-30T23:55:57.545Z,1.10
2022-11-30T23:58:27.671Z,1.17
